createdAt,value
2017-10-09T00:00:49.366Z,5.50
2017-10-09T00:03:15.980Z,5.20
2017-10-09T00:05:42.598Z,5.10
2017-10-09T00:08:09.266Z,5.90
2017-10-09T00:10:35.885Z,5.97
2017-10-09T00:13:02.519Z,5.80
2017-10-09T00:15:29.154Z,3.78
2017-10-09T00:17:55.809Z,4.30
2017-10-09T00:20:22.425Z,4.78
2017-10-09T00:22:49.069Z,5.17
2017-10-09T00:25:15.693Z,4.72
2017-10-09T00:27:42.326Z,4.18
2017-10-09T00:30:08.952Z,4.63
2017-10-09T00:32:35.591Z,4.40
2017-10-09T00:35:02.519Z,4.32
2017-10-09T00:37:29.153Z,5.55
2017-10-09T00:39:55.757Z,4.32
2017-10-09T00:42:22.394Z,4.95
2017-10-09T00:44:49.003Z,3.95
2017-10-09T00:47:15.639Z,3.83
2017-10-09T00:49:42.272Z,3.45
2017-10-09T00:52:08.899Z,4.32
2017-10-09T00:54:35.549Z,3.95
2017-10-09T00:57:02.207Z,4.60
2017-10-09T00:59:28.850Z,4.10
2017-10-09T01:01:55.471Z,3.50
2017-10-09T01:04:22.138Z,3.60
2017-10-09T01:06:48.749Z,3.20
2017-10-09T01:09:15.381Z,3.50
2017-10-09T01:11:42.006Z,3.33
2017-10-09T01:14:08.627Z,3.60
2017-10-09T01:16:35.251Z,3.50
2017-10-09T01:19:01.885Z,3.65
2017-10-09T01:21:28.514Z,3.60
2017-10-09T01:23:55.141Z,3.65
2017-10-09T01:26:21.755Z,3.95
2017-10-09T01:28:48.393Z,5.03
2017-10-09T01:31:15.039Z,4.60
2017-10-09T01:33:41.699Z,4.00
2017-10-09T01:36:08.335Z,4.32
2017-10-09T01:38:34.954Z,3.75
2017-10-09T01:41:01.593Z,4.10
2017-10-09T01:43:28.206Z,4.50
2017-10-09T01:45:54.851Z,4.50
2017-10-09T01:48:21.498Z,4.07
2017-10-09T01:50:48.128Z,5.00
2017-10-09T01:53:14.786Z,4.25
2017-10-09T01:55:41.423Z,4.18
2017-10-09T01:58:08.066Z,3.62
2017-10-09T02:00:34.691Z,4.12
2017-10-09T02:03:01.336Z,4.45
2017-10-09T02:05:27.984Z,3.95
2017-10-09T02:07:54.606Z,4.20
2017-10-09T02:10:21.218Z,4.32
2017-10-09T02:12:47.859Z,4.35
2017-10-09T02:15:14.499Z,4.57
2017-10-09T02:17:41.126Z,4.53
2017-10-09T02:20:07.771Z,4.20
2017-10-09T02:22:34.387Z,3.40
2017-10-09T02:25:00.985Z,4.17
2017-10-09T02:27:27.631Z,4.25
2017-10-09T02:29:54.249Z,4.95
2017-10-09T02:32:20.895Z,4.40
2017-10-09T02:34:47.510Z,4.32
2017-10-09T02:37:14.142Z,4.07
2017-10-09T02:39:40.767Z,3.67
2017-10-09T02:42:07.380Z,3.75
2017-10-09T02:44:34.000Z,4.93
2017-10-09T02:47:00.629Z,3.80
2017-10-09T02:49:27.271Z,4.37
2017-10-09T02:51:53.898Z,4.80
2017-10-09T02:54:20.520Z,4.25
2017-10-09T02:56:47.148Z,4.32
2017-10-09T02:59:13.803Z,5.28
2017-10-09T03:01:40.410Z,4.60
2017-10-09T03:04:07.012Z,4.20
2017-10-09T03:06:33.640Z,4.90
2017-10-09T03:09:00.256Z,4.90
2017-10-09T03:11:26.869Z,5.07
2017-10-09T03:13:53.498Z,5.13
2017-10-09T03:16:20.134Z,4.13
2017-10-09T03:18:46.757Z,3.67
2017-10-09T03:21:13.395Z,4.45
2017-10-09T03:23:43.868Z,3.78
2017-10-09T03:26:16.130Z,5.10
2017-10-09T03:28:43.436Z,5.30
2017-10-09T03:31:10.068Z,4.70
2017-10-09T03:33:36.709Z,3.90
2017-10-09T03:36:03.323Z,5.30
2017-10-09T03:38:29.958Z,5.40
2017-10-09T03:40:56.596Z,4.80
2017-10-09T03:43:23.268Z,5.30
2017-10-09T03:45:49.882Z,4.57
2017-10-09T03:48:16.522Z,5.73
2017-10-09T03:50:43.180Z,5.73
2017-10-09T03:53:09.776Z,6.00
2017-10-09T03:55:36.415Z,6.30
2017-10-09T03:58:03.035Z,5.70
2017-10-09T04:00:29.656Z,5.27
2017-10-09T04:02:56.286Z,6.10
2017-10-09T04:05:22.882Z,5.77
2017-10-09T04:07:49.542Z,6.40
2017-10-09T04:10:16.175Z,6.20
2017-10-09T04:12:42.802Z,5.27
2017-10-09T04:15:09.448Z,7.50
2017-10-09T04:17:36.058Z,6.60
2017-10-09T04:20:02.660Z,5.60
2017-10-09T04:22:29.317Z,8.02
2017-10-09T04:24:55.943Z,5.83
2017-10-09T04:27:22.580Z,6.30
2017-10-09T04:29:49.230Z,8.30
2017-10-09T04:32:15.859Z,6.90
2017-10-09T04:34:42.529Z,5.80
2017-10-09T04:37:09.161Z,6.00
2017-10-09T04:39:35.773Z,5.93
2017-10-09T04:42:02.415Z,6.37
2017-10-09T04:44:29.052Z,6.47
2017-10-09T04:46:55.686Z,6.33
2017-10-09T04:49:22.317Z,6.40
2017-10-09T04:51:48.933Z,5.80
2017-10-09T04:54:15.534Z,5.97
2017-10-09T04:56:42.191Z,6.10
2017-10-09T04:59:08.808Z,6.47
2017-10-09T05:01:35.454Z,6.18
2017-10-09T05:04:02.089Z,6.83
2017-10-09T05:06:28.714Z,6.30
2017-10-09T05:08:55.356Z,6.47
2017-10-09T05:11:21.976Z,6.20
2017-10-09T05:13:48.622Z,6.93
2017-10-09T05:16:15.235Z,7.00
2017-10-09T05:18:41.859Z,7.97
2017-10-09T05:21:08.485Z,7.17
2017-10-09T05:23:35.107Z,5.80
2017-10-09T05:26:01.779Z,6.20
2017-10-09T05:28:28.412Z,6.63
2017-10-09T05:30:55.070Z,7.10
2017-10-09T05:33:21.671Z,5.90
2017-10-09T05:35:48.283Z,6.80
2017-10-09T05:38:14.926Z,7.37
2017-10-09T05:40:41.560Z,7.17
2017-10-09T05:43:08.190Z,7.83
2017-10-09T05:45:34.803Z,6.60
2017-10-09T05:48:01.432Z,8.17
2017-10-09T05:50:28.055Z,7.90
2017-10-09T05:52:54.691Z,7.73
2017-10-09T05:55:21.327Z,7.57
2017-10-09T05:57:47.963Z,8.00
2017-10-09T06:00:14.804Z,7.70
2017-10-09T06:02:41.427Z,8.00
2017-10-09T06:05:08.059Z,8.13
2017-10-09T06:07:34.699Z,7.20
2017-10-09T06:10:01.298Z,8.80
2017-10-09T06:12:27.915Z,8.30
2017-10-09T06:14:54.550Z,8.10
2017-10-09T06:17:21.174Z,8.30
2017-10-09T06:19:47.808Z,8.17
2017-10-09T06:22:14.435Z,9.53
2017-10-09T06:24:41.091Z,8.10
2017-10-09T06:27:07.734Z,8.43
2017-10-09T06:29:34.376Z,9.23
2017-10-09T06:32:01.031Z,11.50
2017-10-09T06:34:27.663Z,9.10
2017-10-09T06:36:54.318Z,8.30
2017-10-09T06:39:20.950Z,8.53
2017-10-09T06:41:47.610Z,9.90
2017-10-09T06:44:14.238Z,8.80
2017-10-09T06:46:40.888Z,9.10
2017-10-09T06:49:07.525Z,8.43
2017-10-09T06:51:34.152Z,8.47
2017-10-09T06:54:00.787Z,8.47
2017-10-09T06:56:27.403Z,9.00
2017-10-09T06:58:54.019Z,9.50
2017-10-09T07:01:20.656Z,9.20
2017-10-09T07:03:47.270Z,7.80
2017-10-09T07:06:13.927Z,8.70
2017-10-09T07:08:40.567Z,10.97
2017-10-09T07:11:07.179Z,8.63
2017-10-09T07:13:33.820Z,8.27
2017-10-09T07:16:00.439Z,8.57
2017-10-09T07:18:27.095Z,9.23
2017-10-09T07:20:53.749Z,8.90
2017-10-09T07:23:20.378Z,9.23
2017-10-09T07:25:47.024Z,9.83
2017-10-09T07:28:13.675Z,10.83
2017-10-09T07:30:40.332Z,9.23
2017-10-09T07:33:06.938Z,9.73
2017-10-09T07:35:33.587Z,9.77
2017-10-09T07:38:00.201Z,10.10
2017-10-09T07:40:26.828Z,9.87
2017-10-09T07:42:53.454Z,10.73
2017-10-09T07:45:20.070Z,10.93
2017-10-09T07:47:46.695Z,9.73
2017-10-09T07:50:13.325Z,10.83
2017-10-09T07:52:39.935Z,9.87
2017-10-09T07:55:06.600Z,8.77
2017-10-09T07:57:33.210Z,10.33
2017-10-09T07:59:59.858Z,9.60
2017-10-09T08:02:26.483Z,10.63
2017-10-09T08:04:53.107Z,10.30
2017-10-09T08:07:20.503Z,8.30
2017-10-09T08:09:47.125Z,6.53
2017-10-09T08:12:13.762Z,7.67
2017-10-09T08:14:40.388Z,6.27
2017-10-09T08:17:07.030Z,7.73
2017-10-09T08:19:33.670Z,8.67
2017-10-09T08:22:00.302Z,7.73
2017-10-09T08:24:26.937Z,6.70
2017-10-09T08:26:53.558Z,3.63
2017-10-09T08:29:20.195Z,3.60
2017-10-09T08:31:46.818Z,5.13
2017-10-09T08:34:13.488Z,3.80
2017-10-09T08:36:40.082Z,4.10
2017-10-09T08:39:06.755Z,5.17
2017-10-09T08:41:33.657Z,5.10
2017-10-09T08:44:00.260Z,5.00
2017-10-09T08:46:26.901Z,4.20
2017-10-09T08:48:53.518Z,6.00
2017-10-09T08:51:20.142Z,5.20
2017-10-09T08:53:46.767Z,5.63
2017-10-09T08:56:13.410Z,5.97
2017-10-09T08:58:40.051Z,7.30
2017-10-09T09:01:06.675Z,7.37
2017-10-09T09:03:33.327Z,7.30
2017-10-09T09:05:59.947Z,9.17
2017-10-09T09:08:26.587Z,8.67
2017-10-09T09:10:53.210Z,11.37
2017-10-09T09:13:19.852Z,10.03
2017-10-09T09:15:46.488Z,10.53
2017-10-09T09:18:13.133Z,11.73
2017-10-09T09:20:39.758Z,10.50
2017-10-09T09:23:06.404Z,12.53
2017-10-09T09:25:33.069Z,12.10
2017-10-09T09:27:59.687Z,12.70
2017-10-09T09:30:26.314Z,13.60
2017-10-09T09:32:52.954Z,13.40
2017-10-09T09:35:19.572Z,14.00
2017-10-09T09:37:46.251Z,13.40
2017-10-09T09:40:12.880Z,12.10
2017-10-09T09:42:39.497Z,12.50
2017-10-09T09:45:06.136Z,13.70
2017-10-09T09:47:32.760Z,9.73
2017-10-09T09:49:59.379Z,11.17
2017-10-09T09:52:26.024Z,10.37
2017-10-09T09:54:52.640Z,10.43
2017-10-09T09:57:19.283Z,11.07
2017-10-09T09:59:45.911Z,10.30
2017-10-09T10:02:12.554Z,10.07
2017-10-09T10:04:39.210Z,9.03
2017-10-09T10:07:05.831Z,11.43
2017-10-09T10:09:32.455Z,8.80
2017-10-09T10:11:59.092Z,11.77
2017-10-09T10:14:25.747Z,10.37
2017-10-09T10:16:52.395Z,9.13
2017-10-09T10:19:19.034Z,10.63
2017-10-09T10:21:45.679Z,11.13
2017-10-09T10:24:12.312Z,9.60
2017-10-09T10:26:38.947Z,10.87
2017-10-09T10:29:05.570Z,10.40
2017-10-09T10:31:32.219Z,11.13
2017-10-09T10:33:58.851Z,11.30
2017-10-09T10:36:25.479Z,12.87
2017-10-09T10:38:52.115Z,11.77
2017-10-09T10:41:18.756Z,13.27
2017-10-09T10:43:45.392Z,16.23
2017-10-09T10:46:12.037Z,15.07
2017-10-09T10:48:38.676Z,13.40
2017-10-09T10:51:05.321Z,13.97
2017-10-09T10:53:31.946Z,14.73
2017-10-09T10:55:58.567Z,17.80
2017-10-09T10:58:25.209Z,19.60
2017-10-09T11:00:51.836Z,17.07
2017-10-09T11:03:18.474Z,19.00
2017-10-09T11:05:45.107Z,19.63
2017-10-09T11:08:11.749Z,21.83
2017-10-09T11:10:38.398Z,20.67
2017-10-09T11:13:05.068Z,20.73
2017-10-09T11:15:31.687Z,20.00
2017-10-09T11:17:58.305Z,20.13
2017-10-09T11:20:24.942Z,22.43
2017-10-09T11:22:51.567Z,22.53
2017-10-09T11:25:18.198Z,22.33
2017-10-09T11:27:44.835Z,23.53
2017-10-09T11:30:11.480Z,25.30
2017-10-09T11:32:38.120Z,21.80
2017-10-09T11:35:04.759Z,25.00
2017-10-09T11:37:31.394Z,26.23
2017-10-09T11:39:58.016Z,23.93
2017-10-09T11:42:24.666Z,25.47
2017-10-09T11:44:51.324Z,24.30
2017-10-09T11:47:17.968Z,24.80
2017-10-09T11:49:45.245Z,23.60
2017-10-09T11:52:11.905Z,22.10
2017-10-09T11:54:38.590Z,26.97
2017-10-09T11:57:05.238Z,23.20
2017-10-09T11:59:31.850Z,24.40
2017-10-09T12:01:58.503Z,23.93
2017-10-09T12:04:25.110Z,23.90
2017-10-09T12:06:51.736Z,24.50
2017-10-09T12:09:18.383Z,26.10
2017-10-09T12:11:44.995Z,24.53
2017-10-09T12:14:11.638Z,25.30
2017-10-09T12:16:38.270Z,28.00
2017-10-09T12:19:04.981Z,25.80
2017-10-09T12:21:31.596Z,26.30
2017-10-09T12:23:58.227Z,27.10
2017-10-09T12:26:24.877Z,28.10
2017-10-09T12:28:51.490Z,26.80
2017-10-09T12:31:18.124Z,28.80
2017-10-09T12:33:44.780Z,29.23
2017-10-09T12:36:11.406Z,27.57
2017-10-09T12:38:38.041Z,28.10
2017-10-09T12:41:04.658Z,27.57
2017-10-09T12:43:31.307Z,27.40
2017-10-09T12:45:57.932Z,27.30
2017-10-09T12:48:24.563Z,26.80
2017-10-09T12:50:51.187Z,27.70
2017-10-09T12:53:17.830Z,28.97
2017-10-09T12:55:44.450Z,27.20
2017-10-09T12:58:11.088Z,30.83
2017-10-09T13:00:37.731Z,26.87
2017-10-09T13:03:04.362Z,28.40
2017-10-09T13:05:30.999Z,26.20
2017-10-09T13:07:57.637Z,25.33
2017-10-09T13:10:24.290Z,26.77
2017-10-09T13:12:50.920Z,29.60
2017-10-09T13:15:17.585Z,29.17
2017-10-09T13:17:44.198Z,27.40
2017-10-09T13:20:10.810Z,27.80
2017-10-09T13:22:37.450Z,26.97
2017-10-09T13:25:04.087Z,28.17
2017-10-09T13:27:30.743Z,29.73
2017-10-09T13:29:57.382Z,26.40
2017-10-09T13:32:23.994Z,25.27
2017-10-09T13:34:50.646Z,27.90
2017-10-09T13:37:17.267Z,27.33
2017-10-09T13:39:43.902Z,30.13
2017-10-09T13:42:10.520Z,29.13
2017-10-09T13:44:37.456Z,29.03
2017-10-09T13:47:04.258Z,29.67
2017-10-09T13:49:30.899Z,32.60
2017-10-09T13:51:57.545Z,28.93
2017-10-09T13:54:24.183Z,29.20
2017-10-09T13:56:50.816Z,29.60
2017-10-09T13:59:17.460Z,28.37
2017-10-09T14:01:44.066Z,30.33
2017-10-09T14:04:10.709Z,30.90
2017-10-09T14:06:37.336Z,30.60
2017-10-09T14:09:03.971Z,32.50
2017-10-09T14:11:30.613Z,33.93
2017-10-09T14:13:57.246Z,33.60
2017-10-09T14:16:23.894Z,33.20
2017-10-09T14:18:50.539Z,32.70
2017-10-09T14:21:17.179Z,30.83
2017-10-09T14:23:43.801Z,32.00
2017-10-09T14:26:10.419Z,32.43
2017-10-09T14:28:37.062Z,32.57
2017-10-09T14:31:03.699Z,29.67
2017-10-09T14:40:50.231Z,26.00
2017-10-09T14:43:16.855Z,27.57
2017-10-09T14:45:43.524Z,26.77
2017-10-09T14:48:10.162Z,26.43
2017-10-09T14:50:36.787Z,25.17
2017-10-09T14:53:03.425Z,24.93
2017-10-09T14:55:30.050Z,24.30
2017-10-09T14:57:56.700Z,23.03
2017-10-09T15:00:23.347Z,25.80
2017-10-09T15:02:50.011Z,24.97
2017-10-09T15:05:16.623Z,22.93
2017-10-09T15:07:43.251Z,23.00
2017-10-09T15:10:09.915Z,23.67
2017-10-09T15:12:36.647Z,23.80
2017-10-09T15:15:03.284Z,23.83
2017-10-09T15:17:29.943Z,23.80
2017-10-09T15:19:56.559Z,23.27
2017-10-09T15:22:23.188Z,23.17
2017-10-09T15:24:49.845Z,21.50
2017-10-09T15:27:16.530Z,21.17
2017-10-09T15:29:43.167Z,21.23
2017-10-09T15:32:09.815Z,20.40
2017-10-09T15:34:36.463Z,21.10
2017-10-09T15:37:03.090Z,24.40
2017-10-09T15:39:29.736Z,23.50
2017-10-09T15:41:56.361Z,22.33
2017-10-09T15:44:23.001Z,20.00
2017-10-09T15:46:49.636Z,22.80
2017-10-09T15:49:16.263Z,20.63
2017-10-09T15:51:42.867Z,22.13
2017-10-09T15:54:09.499Z,19.53
2017-10-09T15:56:36.124Z,19.87
2017-10-09T15:59:02.800Z,19.40
2017-10-09T16:01:29.450Z,22.10
2017-10-09T16:03:56.104Z,19.43
2017-10-09T16:06:22.737Z,18.90
2017-10-09T16:08:49.354Z,19.60
2017-10-09T16:11:16.003Z,18.03
2017-10-09T16:13:42.635Z,21.40
2017-10-09T16:16:09.285Z,18.47
2017-10-09T16:18:35.943Z,20.67
2017-10-09T16:21:02.561Z,20.17
2017-10-09T16:23:29.219Z,21.30
2017-10-09T16:25:55.856Z,19.77
2017-10-09T16:28:22.507Z,20.47
2017-10-09T16:30:49.147Z,20.87
2017-10-09T16:33:15.795Z,20.93
2017-10-09T16:35:42.508Z,21.10
2017-10-09T16:40:34.784Z,19.97
2017-10-09T16:43:01.423Z,21.10
2017-10-09T16:45:28.072Z,19.77
2017-10-09T16:47:54.758Z,18.53
2017-10-09T16:50:21.383Z,21.70
2017-10-09T16:52:48.011Z,21.00
2017-10-09T16:55:14.664Z,21.93
2017-10-09T16:57:41.288Z,21.37
2017-10-09T17:00:07.931Z,19.47
2017-10-09T17:02:34.572Z,19.77
2017-10-09T17:05:01.220Z,21.90
2017-10-09T17:07:27.862Z,20.10
2017-10-09T17:09:54.521Z,23.03
2017-10-09T17:12:21.141Z,22.93
2017-10-09T17:14:47.750Z,21.53
2017-10-09T17:17:14.386Z,21.13
2017-10-09T17:19:41.038Z,20.73
2017-10-09T17:22:07.671Z,20.97
2017-10-09T17:24:34.323Z,23.33
2017-10-09T17:27:00.959Z,21.70
2017-10-09T17:29:27.632Z,19.60
2017-10-09T17:31:54.283Z,21.17
2017-10-09T17:34:20.918Z,19.90
2017-10-09T17:36:47.594Z,19.13
2017-10-09T17:39:14.247Z,18.83
2017-10-09T17:41:40.917Z,17.13
2017-10-09T17:44:07.533Z,19.10
2017-10-09T17:46:34.193Z,18.40
2017-10-09T17:49:00.833Z,19.00
2017-10-09T17:51:27.456Z,19.53
2017-10-09T17:53:54.102Z,16.43
2017-10-09T17:56:20.720Z,17.00
2017-10-09T17:58:47.374Z,16.10
2017-10-09T18:01:14.041Z,15.10
2017-10-09T18:03:40.683Z,15.97
2017-10-09T18:06:07.349Z,13.60
2017-10-09T18:08:34.003Z,15.20
2017-10-09T18:11:00.686Z,15.90
2017-10-09T18:13:27.298Z,16.00
2017-10-09T18:15:53.963Z,15.03
2017-10-09T18:18:20.642Z,14.30
2017-10-09T18:20:47.266Z,15.77
2017-10-09T18:23:13.933Z,15.07
2017-10-09T18:25:40.607Z,15.63
2017-10-09T18:28:07.273Z,15.77
2017-10-09T18:30:33.882Z,15.20
2017-10-09T18:33:00.540Z,17.83
2017-10-09T18:35:27.181Z,16.83
2017-10-09T18:37:53.865Z,16.00
2017-10-09T18:40:20.532Z,17.87
2017-10-09T18:42:47.190Z,16.60
2017-10-09T18:45:13.856Z,18.70
2017-10-09T18:47:40.529Z,18.33
2017-10-09T18:50:07.149Z,16.33
2017-10-09T18:52:33.822Z,17.93
2017-10-09T18:55:00.471Z,16.90
2017-10-09T18:57:27.143Z,17.73
2017-10-09T18:59:53.780Z,18.20
2017-10-09T19:02:20.408Z,18.77
2017-10-09T19:04:47.059Z,18.90
2017-10-09T19:07:13.694Z,17.67
2017-10-09T19:09:40.349Z,17.10
2017-10-09T19:12:06.991Z,18.70
2017-10-09T19:14:33.614Z,19.10
2017-10-09T19:17:00.267Z,18.47
2017-10-09T19:19:26.904Z,19.17
2017-10-09T19:21:53.546Z,19.00
2017-10-09T19:24:20.806Z,19.73
2017-10-09T19:26:47.464Z,18.37
2017-10-09T19:29:14.150Z,17.07
2017-10-09T19:31:40.782Z,19.90
2017-10-09T19:34:07.520Z,17.83
2017-10-09T19:36:34.416Z,18.40
2017-10-09T19:39:01.086Z,18.27
2017-10-09T19:41:27.889Z,18.93
2017-10-09T19:43:54.559Z,22.37
2017-10-09T19:46:21.240Z,19.93
2017-10-09T19:48:47.885Z,19.47
2017-10-09T19:51:14.544Z,20.00
2017-10-09T19:53:41.200Z,23.30
2017-10-09T19:56:08.152Z,19.33
2017-10-09T19:58:34.790Z,18.37
2017-10-09T20:01:01.422Z,19.60
2017-10-09T20:03:28.082Z,19.33
2017-10-09T20:05:54.726Z,19.73
2017-10-09T20:08:21.396Z,21.07
2017-10-09T20:10:48.022Z,20.80
2017-10-09T20:13:14.678Z,19.00
2017-10-09T20:15:41.310Z,18.20
2017-10-09T20:18:07.928Z,20.90
2017-10-09T20:20:34.589Z,20.67
2017-10-09T20:23:01.229Z,18.80
2017-10-09T20:25:27.894Z,22.03
2017-10-09T20:27:54.530Z,22.07
2017-10-09T20:30:21.236Z,21.97
2017-10-09T20:32:47.887Z,20.03
2017-10-09T20:35:14.540Z,19.90
2017-10-09T20:37:41.183Z,22.37
2017-10-09T20:40:07.848Z,18.97
2017-10-09T20:42:34.492Z,20.60
2017-10-09T20:45:01.119Z,19.80
2017-10-09T20:47:27.745Z,19.47
2017-10-09T20:49:54.392Z,21.57
2017-10-09T20:52:21.032Z,19.80
2017-10-09T20:54:47.699Z,22.30
2017-10-09T20:57:14.339Z,19.80
2017-10-09T20:59:40.990Z,21.60
2017-10-09T21:02:07.620Z,22.93
2017-10-09T21:04:34.252Z,21.10
2017-10-09T21:07:00.968Z,19.60
2017-10-09T21:09:27.601Z,19.10
2017-10-09T21:11:54.267Z,21.40
2017-10-09T21:14:20.911Z,21.30
2017-10-09T21:16:47.540Z,21.57
2017-10-09T21:19:14.202Z,20.20
2017-10-09T21:21:40.829Z,20.93
2017-10-09T21:24:07.470Z,20.97
2017-10-09T21:26:34.131Z,20.23
2017-10-09T21:29:00.874Z,21.40
2017-10-09T21:31:27.487Z,21.20
2017-10-09T21:33:54.140Z,20.83
2017-10-09T21:36:20.851Z,19.73
2017-10-09T21:38:47.482Z,19.07
2017-10-09T21:41:14.122Z,20.57
2017-10-09T21:43:40.765Z,21.43
2017-10-09T21:46:07.375Z,19.87
2017-10-09T21:48:34.012Z,22.20
2017-10-09T21:51:00.667Z,21.40
2017-10-09T21:53:27.335Z,20.27
2017-10-09T21:55:53.967Z,21.40
2017-10-09T21:58:20.607Z,21.47
2017-10-09T22:00:47.260Z,20.10
2017-10-09T22:03:13.907Z,17.80
2017-10-09T22:05:40.538Z,20.80
2017-10-09T22:08:07.156Z,21.63
2017-10-09T22:10:33.790Z,21.67
2017-10-09T22:13:00.416Z,22.47
2017-10-09T22:15:27.050Z,20.77
2017-10-09T22:17:54.042Z,21.50
2017-10-09T22:20:20.733Z,22.67
2017-10-09T22:41:49.226Z,20.53
2017-10-09T22:44:15.900Z,22.53
2017-10-09T22:46:42.576Z,20.57
2017-10-09T22:49:09.247Z,19.20
2017-10-09T22:51:35.925Z,21.57
2017-10-09T22:54:02.596Z,22.47
2017-10-09T22:56:29.284Z,23.93
2017-10-09T22:58:55.933Z,22.03
2017-10-09T23:01:22.628Z,22.53
2017-10-09T23:03:49.317Z,23.57
2017-10-09T23:06:15.973Z,22.13
2017-10-09T23:08:42.662Z,21.77
2017-10-09T23:11:09.344Z,20.10
2017-10-09T23:13:36.024Z,21.37
2017-10-09T23:16:02.687Z,20.00
2017-10-09T23:18:29.371Z,20.03
2017-10-09T23:20:56.047Z,22.97
2017-10-09T23:23:22.706Z,20.97
2017-10-09T23:25:49.402Z,21.47
2017-10-09T23:28:16.069Z,21.00
2017-10-09T23:30:42.740Z,20.40
2017-10-09T23:33:09.426Z,19.27
2017-10-09T23:35:36.076Z,19.30
2017-10-09T23:38:02.745Z,18.87
2017-10-09T23:40:29.449Z,20.40
2017-10-09T23:42:56.128Z,18.73
2017-10-09T23:45:22.792Z,21.20
2017-10-09T23:47:49.482Z,18.53
2017-10-09T23:50:16.152Z,18.30
2017-10-09T23:52:42.825Z,16.83
2017-10-09T23:55:09.500Z,18.27
2017-10-09T23:57:36.181Z,17.40
